Résultats

Le Défi des Plages - 10 km. Édition 2017.

10 Km
19/11/2017 à 10:00:00 - Saintes Maries de la mer (13)
202 arrivant(e)s.


 
Les autres classements de cet évènement




Place▲ Temps Dossard Nom Prenom Categ #Categ Sexe #Sexe Club Vit Moy Diplôme Partager
1 00:41:47 721 GERARD GUILHEM SEM 1 M 1 TEAM PROVENCE ENDURANCE 14.36
2 00:42:19 714 VILLARET JEROME M1M 1 M 2 LA FOULEE MEYNOISE 14.18
3 00:42:35 777 BENHAMMOU DRISS M1M 2 M 3 14.09
4 00:45:13 722 GOUIN RENE M2M 1 M 4 SMA 13.27
5 00:45:46 686 SEBAA DJAMEL M1M 3 M 5 13.11
6 00:45:54 646 FORNELLS ADRIEN SEM 2 M 6 ACRA 13.07
7 00:46:06 784 MOUANJO EBONGUE M1M 4 M 7 SC ARLES 13.02
8 00:46:10 772 BONHOURE ROMAIN SEM 3 M 8 ENDURANCE MACAREL CLUB 13.00
9 00:46:16 666 LAZIN DAVID SEM 4 M 9 SC ARLES 12.97
10 00:46:51 749 CLEMENT STEPHANE M1M 5 M 10 LE CLAN NOVES 12.81
11 00:46:53 709 ROBERT CHRISTOPHE M1M 6 M 11 TARAHUMARA TEAM 12.80
12 00:46:54 724 STARK LIONEL M2M 2 M 12 LE CLAN NOVES 12.79
13 00:46:54 785 ROBINEAU CHRISTOPHE M2M 3 M 13 SC ARLES 12.79
14 00:46:58 746 RENAULT GUILLAUME SEM 5 M 14 TARAHUMARA TEAM 12.78
15 00:47:07 717 LESAULNIER BRUNO M1M 7 M 15 SC ARLES 12.73
16 00:47:50 624 D'HOIR VINCENT SEM 6 M 16 12.54
17 00:48:22 689 LAGUERRE PATRICK M1M 8 M 17 12.41
18 00:48:25 797 SUBIRATS LOUIS M1M 9 M 18 12.39
19 00:48:42 609 N:Anonyme 609 P:Anonyme 609 M2M 4 M 19 TARAHUMARA TEAM 12.32
20 00:48:46 713 PROVENCE MAXIME SEM 7 M 20 LE CLAN NOVES 12.30
21 00:48:51 680 COUTAS RENAUD M1M 10 M 21 ASSOCIATION MARTINOU LE CRAPOUILLOU 12.28
22 00:48:53 748 SCHEUER FABRICE M2M 5 M 22 FOS OLYMPIQUE CLUB 12.27
23 00:49:08 707 BOYER GILBERT M3M 1 M 23 SC ARLES 12.21
24 00:49:30 897 RIBBE PIERRE SEM 8 M 24 12.12
25 00:49:34 692 PAURIOL CLEMENT SEM 9 M 25 TRIATHL'AIX 12.10
26 00:49:46 753 DUFY CHRISTIAN M3M 2 M 26 ACRA ARLES 12.06
27 00:50:01 670 GALINIER MANUEL M2M 6 M 27 CREDIT AGRICOLE 12.00
28 00:50:21 776 BERNARD LAURENT M2M 7 M 28 11.92
29 00:50:25 802 N:Anonyme 802 P:Anonyme 802 SEM 10 M 29 11.90
30 00:50:27 643 SAUVEE NICOLAS SEM 11 M 30 TRAIL IRAGO RUNNING 11.89
31 00:50:36 690 CASU FRANCK M2M 8 M 31 PREPA PHYSIQUE MIRAMAS 11.86
32 00:51:17 729 GILLES LOUIS M4M 1 M 32 AC SAINT REMY 11.70
33 00:51:32 622 COLIN EMMANUEL M1M 11 M 33 CROCO D'AIRAIN NIMES TRIATHLON 11.64
34 00:51:32 619 N:Anonyme 619 P:Anonyme 619 M1M 12 M 34 CROCO D'AIRAIN TRIATHLON NIMES 11.64
35 00:51:36 664 FUSAT JEAN-BAPTISTE SEM 12 M 35 S.M.A 11.63
36 00:51:53 740 CHANCEL FRANCOIS M2M 9 M 36 11.56
37 00:51:55 669 MINEFF CHRISTOPHE M2M 10 M 37 CREDIT AGRICOLE 11.56
38 00:52:05 703 GUILLEMETTE MICHEL M2M 11 M 38 ORANGE BLEU 11.52
39 00:52:16 634 CHAUVEAU FREDERIC SEM 13 M 39 PREPA PHYSIQUE MIRAMAS 11.48
40 00:52:43 808 SANTI FLORENT M1M 13 M 40 SC ARLES 11.38
41 00:53:01 783 ELYAAKOUBI MOHAMED M1M 14 M 41 LE CLAN NOVES 11.32
42 00:53:06 677 VIGNAUD AURELIEN SEM 14 M 42 11.30
43 00:53:25 723 CIFFREO DAVID M1M 15 M 43 SC PAM 11.23
44 00:53:33 732 LORINO DAVID SEM 15 M 44 TARAHUMARA TEAM 11.20
45 00:53:39 635 IBANEZ CLAUDE M2M 12 M 45 LES SENTIERS DU PATY 11.18
46 00:54:09 647 DIAZ ORLANDO M2M 13 M 46 TRAIL IRAGO RUNNING 11.08
47 00:54:24 793 CONSTANTY MARIE-JOSEE M3F 1 F 1 11.03
48 00:54:28 621 CUVILLIER ALAIN M2M 14 M 47 CROCO D AIRAIN NIMES TRIATHLON 11.02
49 00:54:34 693 INDACO ELODIE SEF 1 F 2 TRIATHL'AIX 11.00
50 00:54:39 763 RABANIT AUDREY SEF 2 F 3 SC ARLES 10.98
51 00:54:40 775 BERNARD SOPHIE M1F 1 F 4 10.98
52 00:54:54 678 SIGNES DANIEL SEM 16 M 48 10.93
53 00:54:55 765 MASMEJEAN JEAN-MARC M2M 15 M 49 10.93
54 00:55:15 641 DOMENECH JEAN-PIERRE M4M 2 M 50 ROGNAC ATHLETIC CLUB 10.86
55 00:55:17 743 LANCELLOTTI DOMINIQUE M1M 16 M 51 LE CLAN NOVES 10.85
56 00:55:29 712 MONFERRER SEBASTIEN M1M 17 M 52 10.81
57 00:55:31 685 PONS JEAN-FRANCOIS M3M 3 M 53 SETE THAU TRIATHLON 10.81
58 00:55:32 657 RODRIGUEZ CHRISTIAN M2M 16 M 54 VENTOUX TRIATHLON CLUB CARPENTRA 10.80
59 00:55:33 807 NEUVILLE ANTOINE SEM 17 M 55 10.80
60 00:55:37 638 CABRERA NATHALIE M1F 2 F 5 TRAIL IRAGO RUNNING 10.79
61 00:55:45 681 AUGUSTIN ADRIEN SEM 18 M 56 10.76
62 00:55:49 727 CHABANNES ALAIN M2M 17 M 57 AC SAINT REMY 10.75
63 00:56:30 642 BONACCORSI ADRIEN SEM 19 M 58 PREPA PHYSIQUE MIRAMAS 10.62
64 00:56:47 752 PLISSON THOMAS SEM 20 M 59 ACRA ARLES 10.57
65 00:56:48 737 MAURIN NICOLAS SEM 21 M 60 ASSOCIATION MARTINOU LE CRAPOUILLOU 10.56
66 00:56:48 771 DUFOUR CHRISTELLE SEF 3 F 6 TRAIL IRAGO RUNNING 10.56
67 00:56:52 792 POLO GAVINO M2M 18 M 61 10.55
68 00:56:53 745 VALLELIAN LAETITIA M1F 3 F 7 TARAHUMARA TEAM 10.55
69 00:57:12 660 BOUCHET GISELE M3F 2 F 8 TARAHUMARA TEAM 10.49
70 00:57:14 757 TORRE BALTA M3M 4 M 62 NON LICENCIE 10.48
71 00:57:14 744 BARRA LAURENT M1M 18 M 63 ACRA 10.48
72 00:57:23 780 MARILLIER HERVE M2M 19 M 64 10.46
73 00:57:33 668 BONO-BRUNE CHRISTINE M2F 1 F 9 LE CLAN NOVES 10.43
74 00:57:34 756 GENIN ANDRE M3M 5 M 65 LE CLAN NOVES 10.42
75 00:57:35 715 DIRN STEPHANE M1M 19 M 66 TEAM CREUTZWALD 10.42
76 00:57:47 809 SANTI SANDRA M1F 4 F 10 SC ARLES 10.38
77 00:57:53 661 BOUCHET DANIEL M3M 6 M 67 TARAHUMARA TEAM 10.37
78 00:57:59 650 DELON PASCAL M1M 20 M 68 10.35
79 00:58:06 631 FEUILLET LUDOVIC M2M 20 M 69 BASKETS FUMANTES 10.33
80 00:58:07 632 FAVIER VERONIQUE M2F 2 F 11 10.32
81 00:58:13 649 MOULY NICOLAS M2M 21 M 70 CSPCG 13 10.31
82 00:58:13 648 LERDA CELINE M1F 5 F 12 CSPCG 13 10.31
83 00:58:30 601 ROMAND-PIQUANT NOEL M3M 7 M 71 SC ARLES 10.26
84 00:59:12 611 JACQUET AURELIE ESF 1 F 13 10.14
85 00:59:28 898 FLECHON CHRISTOPHE M1M 21 M 72 10.09
86 00:59:38 675 CEREZUELA GINES M2M 22 M 73 LES SENTIERS DU PATY 10.06
87 00:59:40 629 BARBE CECILE M1F 6 F 14 10.06
88 00:59:42 787 RANCOULE JACQUES M2M 23 M 74 10.05
89 00:59:45 701 MOUCADEL FRANCOISE M3F 3 F 15 10.04
90 00:59:51 796 MAILIS CHRISTOPHE M2M 24 M 75 10.03
91 00:59:52 671 MINEFF SANDRINE M2F 3 F 16 CREDIT AGRICOLE 10.02
92 00:59:58 788 ARNAUD LAETITIA M1F 7 F 17 10.01
93 01:00:08 770 VIANES REMI M1M 22 M 76 SC ARLES 9.98
94 01:00:08 769 VERCELLI VERONIQUE M1F 8 F 18 SC ARLES 9.98
95 01:00:12 726 BLANC VALERIE M2F 4 F 19 AC SAINT REMY 9.97
96 01:00:14 738 MAURIN MARION SEF 4 F 20 ASSOCIATION MARTINOU LE CRAPOUILLOU 9.96
97 01:00:18 734 GAMBAROTTO ANNE SEF 5 F 21 TARAHUMARA TEAM 9.95
98 01:00:18 733 VIGNE ROMAIN SEM 22 M 77 TARAHUMARA TEAM 9.95
99 01:00:27 626 JEANNIN GABRIELLE SEF 6 F 22 9.93
100 01:00:35 651 SABATIER ANGELIQUE M1F 9 F 23 TARAHUMARA TEAM 9.90